createdAt,value
2018-12-01T00:02:27.176Z,14.90
2018-12-01T00:05:01.375Z,15.03
2018-12-01T00:07:35.674Z,15.40
2018-12-01T00:10:09.960Z,14.33
2018-12-01T00:12:44.204Z,16.03
2018-12-01T00:15:26.360Z,13.77
2018-12-01T00:18:00.543Z,14.43
2018-12-01T00:20:36.707Z,13.10
2018-12-01T00:23:10.901Z,15.27
2018-12-01T00:25:45.185Z,17.50
2018-12-01T00:28:19.408Z,19.43
2018-12-01T00:30:53.743Z,17.17
2018-12-01T00:33:28.041Z,17.10
2018-12-01T00:36:02.320Z,14.70
2018-12-01T00:38:36.620Z,15.10
2018-12-01T00:41:10.912Z,14.57
2018-12-01T00:43:45.203Z,14.90
2018-12-01T00:46:19.394Z,13.20
2018-12-01T00:48:53.591Z,13.60
2018-12-01T00:51:27.808Z,13.27
2018-12-01T00:54:02.092Z,14.50
2018-12-01T00:56:36.383Z,15.67
2018-12-01T00:59:10.561Z,17.37
2018-12-01T01:01:44.892Z,19.83
2018-12-01T01:04:19.212Z,13.93
2018-12-01T01:06:53.396Z,21.13
2018-12-01T01:09:27.672Z,15.20
2018-12-01T01:12:01.967Z,14.37
2018-12-01T01:14:36.276Z,16.23
2018-12-01T01:17:10.509Z,16.40
2018-12-01T01:19:44.745Z,15.63
2018-12-01T01:22:18.939Z,15.03
2018-12-01T01:24:53.140Z,13.73
2018-12-01T01:27:27.424Z,17.00
2018-12-01T01:30:01.598Z,13.93
2018-12-01T01:32:35.980Z,16.70
2018-12-01T01:35:10.204Z,16.40
2018-12-01T01:37:44.532Z,16.43
2018-12-01T01:40:18.788Z,16.93
2018-12-01T01:42:53.018Z,20.90
2018-12-01T01:45:27.319Z,12.70
2018-12-01T01:48:01.631Z,15.67
2018-12-01T01:50:36.032Z,18.07
2018-12-01T01:53:10.193Z,15.33
2018-12-01T01:55:44.436Z,16.40
2018-12-01T01:58:18.733Z,18.07
2018-12-01T02:00:53.019Z,21.03
2018-12-01T02:03:27.380Z,18.70
2018-12-01T02:06:01.652Z,14.77
2018-12-01T02:08:35.998Z,27.07
2018-12-01T02:11:10.157Z,25.13
2018-12-01T02:13:44.474Z,21.67
2018-12-01T02:16:18.744Z,16.30
2018-12-01T02:18:53.762Z,18.27
2018-12-01T02:21:27.893Z,16.50
2018-12-01T02:24:02.281Z,14.90
2018-12-01T02:26:36.493Z,18.53
2018-12-01T02:29:10.869Z,16.50
2018-12-01T02:31:45.168Z,16.67
2018-12-01T02:34:19.494Z,15.37
2018-12-01T02:36:53.820Z,16.60
2018-12-01T02:39:28.110Z,16.37
2018-12-01T02:42:02.432Z,17.63
2018-12-01T02:44:59.465Z,17.17
2018-12-01T02:47:34.216Z,20.53
2018-12-01T02:50:13.120Z,15.90
2018-12-01T02:52:47.364Z,17.70
2018-12-01T02:55:21.697Z,15.20
2018-12-01T02:57:55.919Z,13.27
2018-12-01T03:00:30.276Z,20.03
2018-12-01T03:03:04.736Z,16.90
2018-12-01T03:05:38.924Z,16.00
2018-12-01T03:08:13.236Z,16.73
2018-12-01T03:10:47.408Z,14.37
2018-12-01T03:13:21.700Z,17.30
2018-12-01T03:15:55.856Z,19.47
2018-12-01T03:18:30.149Z,15.30
2018-12-01T03:21:04.508Z,17.23
2018-12-01T03:23:38.783Z,18.57
2018-12-01T03:26:13.053Z,16.63
2018-12-01T03:28:47.332Z,24.50
2018-12-01T03:31:21.637Z,21.97
2018-12-01T03:33:55.904Z,13.73
2018-12-01T03:36:30.104Z,17.43
2018-12-01T03:39:07.504Z,24.10
2018-12-01T03:41:41.677Z,16.97
2018-12-01T03:44:15.940Z,15.73
2018-12-01T03:46:50.130Z,22.50
2018-12-01T03:49:24.348Z,16.73
2018-12-01T03:51:58.648Z,19.03
2018-12-01T03:54:32.960Z,14.90
2018-12-01T03:57:07.276Z,14.10
2018-12-01T03:59:41.532Z,15.90
2018-12-01T04:02:15.948Z,16.07
2018-12-01T04:04:50.196Z,18.33
2018-12-01T04:07:24.348Z,14.40
2018-12-01T04:09:58.673Z,16.20
2018-12-01T04:12:33.056Z,12.33
2018-12-01T04:15:07.337Z,19.17
2018-12-01T04:17:41.661Z,17.73
2018-12-01T04:20:15.920Z,15.77
2018-12-01T04:22:50.213Z,15.40
2018-12-01T04:25:24.709Z,14.83
2018-12-01T04:27:59.052Z,17.40
2018-12-01T04:30:33.360Z,19.80
2018-12-01T04:33:07.728Z,19.80
2018-12-01T04:35:42.141Z,19.50
2018-12-01T04:38:16.576Z,15.60
2018-12-01T04:40:50.825Z,15.30
2018-12-01T04:43:25.107Z,21.50
2018-12-01T04:45:59.371Z,13.63
2018-12-01T04:48:33.660Z,19.93
2018-12-01T04:51:07.932Z,15.93
2018-12-01T04:53:42.164Z,12.03
2018-12-01T04:56:16.496Z,16.93
2018-12-01T04:58:50.688Z,18.33
2018-12-01T05:01:25.001Z,13.00
2018-12-01T05:03:59.260Z,13.00
2018-12-01T05:06:33.525Z,15.70
2018-12-01T05:09:08.725Z,18.75
2018-12-01T05:11:42.940Z,12.10
2018-12-01T05:14:17.148Z,14.13
2018-12-01T05:16:51.469Z,14.17
2018-12-01T05:19:25.771Z,21.83
2018-12-01T05:22:00.204Z,16.63
2018-12-01T05:24:34.489Z,23.60
2018-12-01T05:27:08.908Z,18.07
2018-12-01T05:29:43.196Z,18.93
2018-12-01T05:32:17.323Z,18.13
2018-12-01T05:34:51.533Z,17.03
2018-12-01T05:37:25.885Z,12.00
2018-12-01T05:40:00.201Z,14.37
2018-12-01T05:42:34.635Z,13.07
2018-12-01T05:45:14.159Z,15.13
2018-12-01T05:47:48.380Z,16.10
2018-12-01T05:50:23.464Z,15.27
2018-12-01T05:52:57.720Z,20.90
2018-12-01T05:55:31.949Z,18.63
2018-12-01T05:58:06.256Z,20.80
2018-12-01T06:00:40.413Z,16.50
2018-12-01T06:03:14.536Z,16.83
2018-12-01T06:05:48.915Z,16.40
2018-12-01T06:08:23.193Z,18.70
2018-12-01T06:10:57.472Z,15.77
2018-12-01T06:13:31.777Z,11.57
2018-12-01T06:16:06.336Z,13.10
2018-12-01T06:18:40.724Z,17.00
2018-12-01T06:21:15.100Z,15.40
2018-12-01T06:23:49.348Z,17.07
2018-12-01T06:26:23.729Z,14.70
2018-12-01T06:28:57.844Z,10.73
2018-12-01T06:31:32.114Z,14.73
2018-12-01T06:34:06.433Z,14.33
2018-12-01T06:36:40.702Z,14.53
2018-12-01T06:39:14.965Z,14.50
2018-12-01T06:41:49.134Z,13.77
2018-12-01T06:44:23.430Z,16.10
2018-12-01T06:46:57.587Z,21.57
2018-12-01T06:49:31.789Z,13.93
2018-12-01T06:52:06.166Z,17.90
2018-12-01T06:54:40.414Z,13.13
2018-12-01T06:57:14.720Z,21.93
2018-12-01T06:59:48.924Z,12.97
2018-12-01T07:02:23.284Z,14.83
2018-12-01T07:04:57.537Z,18.23
2018-12-01T07:07:31.745Z,14.50
2018-12-01T07:10:08.574Z,13.67
2018-12-01T07:12:48.337Z,11.83
2018-12-01T07:15:24.281Z,19.87
2018-12-01T07:17:58.629Z,17.63
2018-12-01T07:20:32.780Z,18.23
2018-12-01T07:23:07.144Z,16.97
2018-12-01T07:25:41.483Z,13.87
2018-12-01T07:28:15.787Z,11.63
2018-12-01T07:30:50.060Z,16.00
2018-12-01T07:33:24.344Z,15.20
2018-12-01T07:35:58.675Z,12.07
2018-12-01T07:38:33.016Z,14.77
2018-12-01T07:41:07.969Z,10.83
2018-12-01T07:43:42.325Z,17.67
2018-12-01T07:46:16.487Z,13.07
2018-12-01T07:48:50.772Z,12.17
2018-12-01T07:51:25.016Z,14.07
2018-12-01T07:53:59.340Z,9.47
2018-12-01T07:56:33.650Z,13.30
2018-12-01T07:59:07.825Z,15.27
2018-12-01T08:01:42.111Z,17.97
2018-12-01T08:04:16.418Z,13.90
2018-12-01T08:06:50.695Z,11.73
2018-12-01T08:09:24.976Z,12.83
2018-12-01T08:11:59.340Z,13.70
2018-12-01T08:14:33.672Z,11.50
2018-12-01T08:17:08.137Z,13.07
2018-12-01T08:19:42.480Z,13.83
2018-12-01T08:22:16.887Z,17.20
2018-12-01T08:24:51.121Z,13.23
2018-12-01T08:27:25.297Z,11.67
2018-12-01T08:29:59.606Z,12.70
2018-12-01T08:32:33.909Z,10.60
2018-12-01T08:35:08.226Z,9.93
2018-12-01T08:37:42.488Z,15.50
2018-12-01T08:40:19.036Z,13.07
2018-12-01T08:42:53.321Z,11.50
2018-12-01T08:45:28.421Z,9.30
2018-12-01T08:48:01.924Z,8.83
2018-12-01T08:50:37.025Z,13.47
2018-12-01T08:53:11.524Z,11.83
2018-12-01T08:55:45.789Z,12.00
2018-12-01T08:58:20.401Z,9.47
2018-12-01T09:00:55.216Z,11.30
2018-12-01T09:03:29.451Z,9.40
2018-12-01T09:06:03.802Z,8.33
2018-12-01T09:08:38.061Z,11.43
2018-12-01T09:11:12.290Z,12.17
2018-12-01T09:13:46.513Z,11.30
2018-12-01T09:16:20.760Z,10.23
2018-12-01T09:18:55.088Z,11.87
2018-12-01T09:21:29.476Z,5.00
2018-12-01T09:24:03.800Z,10.20
2018-12-01T09:26:38.065Z,8.47
2018-12-01T09:29:12.373Z,8.57
2018-12-01T09:31:46.848Z,12.43
2018-12-01T09:34:21.256Z,10.53
2018-12-01T09:36:55.509Z,7.93
2018-12-01T09:39:29.920Z,8.90
2018-12-01T09:42:04.184Z,7.67
2018-12-01T09:44:38.410Z,8.60
2018-12-01T09:47:12.748Z,9.90
2018-12-01T09:49:47.011Z,11.57
2018-12-01T09:52:21.348Z,6.43
2018-12-01T09:54:55.625Z,10.33
2018-12-01T09:57:29.913Z,5.80
2018-12-01T10:00:08.210Z,14.90
2018-12-01T10:02:42.944Z,9.37
2018-12-01T10:05:19.087Z,9.93
2018-12-01T10:07:53.330Z,11.87
2018-12-01T10:10:27.536Z,6.20
2018-12-01T10:13:01.752Z,8.60
2018-12-01T10:15:36.771Z,7.13
2018-12-01T10:18:11.126Z,7.63
2018-12-01T10:20:45.296Z,8.27
2018-12-01T10:23:19.436Z,9.87
2018-12-01T10:25:53.884Z,8.53
2018-12-01T10:28:28.108Z,8.87
2018-12-01T10:31:02.377Z,9.60
2018-12-01T10:33:36.681Z,13.70
2018-12-01T10:36:11.216Z,7.73
2018-12-01T10:38:45.590Z,7.90
2018-12-01T10:41:19.792Z,13.73
2018-12-01T10:43:54.097Z,8.17
2018-12-01T10:46:28.401Z,7.00
2018-12-01T10:49:02.645Z,10.90
2018-12-01T10:51:36.908Z,11.60
2018-12-01T10:54:11.071Z,11.20
2018-12-01T10:56:45.273Z,8.43
2018-12-01T10:59:19.440Z,8.50
2018-12-01T11:01:59.048Z,7.37
2018-12-01T11:04:38.246Z,4.87
2018-12-01T11:07:12.399Z,8.00
2018-12-01T11:09:46.661Z,9.97
2018-12-01T11:12:20.963Z,10.90
2018-12-01T11:14:55.296Z,9.47
2018-12-01T11:17:29.445Z,7.37
2018-12-01T11:20:04.777Z,5.83
2018-12-01T11:22:39.128Z,10.23
2018-12-01T11:25:13.436Z,6.07
2018-12-01T11:27:47.801Z,11.80
2018-12-01T11:30:22.089Z,8.27
2018-12-01T11:32:56.297Z,8.43
2018-12-01T11:35:30.500Z,7.17
2018-12-01T11:38:05.088Z,8.27
2018-12-01T11:40:39.352Z,7.23
2018-12-01T11:43:13.512Z,6.50
2018-12-01T11:45:47.829Z,7.20
2018-12-01T11:48:22.068Z,4.97
2018-12-01T11:50:56.402Z,6.87
2018-12-01T11:53:30.669Z,4.27
2018-12-01T11:56:05.377Z,4.90
2018-12-01T11:58:39.553Z,4.97
2018-12-01T12:01:13.852Z,8.17
2018-12-01T12:03:48.144Z,10.37
2018-12-01T12:06:22.500Z,6.53
2018-12-01T12:08:56.937Z,8.70
2018-12-01T12:11:31.095Z,6.67
2018-12-01T12:14:05.404Z,7.67
2018-12-01T12:16:39.788Z,8.10
2018-12-01T12:19:14.060Z,5.30
2018-12-01T12:21:48.236Z,8.97
2018-12-01T12:24:22.593Z,5.40
2018-12-01T12:26:56.888Z,6.37
2018-12-01T12:29:31.456Z,7.23
2018-12-01T12:32:05.937Z,6.27
2018-12-01T12:34:40.200Z,6.27
2018-12-01T12:37:14.501Z,11.23
2018-12-01T12:39:48.721Z,5.63
2018-12-01T12:42:22.954Z,7.83
2018-12-01T12:44:57.221Z,5.07
2018-12-01T12:47:31.561Z,9.00
2018-12-01T12:50:15.653Z,7.90
2018-12-01T12:52:50.837Z,4.77
2018-12-01T12:55:25.733Z,5.83
2018-12-01T12:58:00.068Z,5.97
2018-12-01T13:00:34.624Z,4.87
2018-12-01T13:03:10.193Z,5.47
2018-12-01T13:05:46.036Z,7.30
2018-12-01T13:08:20.508Z,3.87
2018-12-01T13:10:54.893Z,5.67
2018-12-01T13:13:29.404Z,6.93
2018-12-01T13:16:03.668Z,6.57
2018-12-01T13:18:37.961Z,5.97
2018-12-01T13:21:12.259Z,7.57
2018-12-01T13:23:46.600Z,8.17
2018-12-01T13:26:20.869Z,11.73
2018-12-01T13:28:55.175Z,16.60
2018-12-01T13:31:29.452Z,21.90
2018-12-01T13:34:03.876Z,11.17
2018-12-01T13:36:38.176Z,9.63
2018-12-01T13:39:12.516Z,6.67
2018-12-01T13:41:46.782Z,6.30
2018-12-01T13:44:21.018Z,3.23
2018-12-01T13:46:55.280Z,6.23
2018-12-01T13:49:29.601Z,7.13
2018-12-01T13:52:03.848Z,5.33
2018-12-01T13:54:38.106Z,5.03
2018-12-01T13:57:12.328Z,6.90
2018-12-01T13:59:46.584Z,7.90
2018-12-01T14:02:20.767Z,6.87
2018-12-01T14:04:54.967Z,6.60
2018-12-01T14:07:29.297Z,6.00
2018-12-01T14:10:04.917Z,3.80
2018-12-01T14:12:39.326Z,4.87
2018-12-01T14:15:20.616Z,8.33
2018-12-01T14:17:54.876Z,3.67
2018-12-01T14:20:29.161Z,6.73
2018-12-01T14:23:03.316Z,3.73
2018-12-01T14:25:37.600Z,6.97
2018-12-01T14:28:12.400Z,7.90
2018-12-01T14:30:46.528Z,6.60
2018-12-01T14:33:20.809Z,8.27
2018-12-01T14:35:55.040Z,3.93
2018-12-01T14:38:29.273Z,5.97
2018-12-01T14:41:03.421Z,4.20
2018-12-01T14:43:37.640Z,7.77
2018-12-01T14:46:11.856Z,6.47
2018-12-01T14:48:46.033Z,5.17
2018-12-01T14:51:20.385Z,6.90
2018-12-01T14:53:54.629Z,6.13
2018-12-01T14:56:28.908Z,5.13
2018-12-01T14:59:03.200Z,4.80
2018-12-01T15:01:37.573Z,6.97
2018-12-01T15:04:11.801Z,6.43
2018-12-01T15:06:46.000Z,6.13
2018-12-01T15:09:20.257Z,5.70
2018-12-01T15:11:54.556Z,3.20
2018-12-01T15:14:28.864Z,5.43
2018-12-01T15:17:03.164Z,7.60
2018-12-01T15:19:37.436Z,6.23
2018-12-01T15:22:11.673Z,4.80
2018-12-01T15:24:46.847Z,5.77
2018-12-01T15:27:21.212Z,4.97
2018-12-01T15:29:55.521Z,5.43
2018-12-01T15:32:29.912Z,4.17
2018-12-01T15:35:04.260Z,10.00
2018-12-01T15:37:38.774Z,4.73
2018-12-01T15:40:16.280Z,8.05
2018-12-01T15:42:50.518Z,6.17
2018-12-01T15:45:24.985Z,7.63
2018-12-01T15:47:59.222Z,4.60
2018-12-01T15:50:33.552Z,4.57
2018-12-01T15:53:10.336Z,6.37
2018-12-01T15:55:44.644Z,3.47
2018-12-01T15:58:18.935Z,6.15
2018-12-01T16:00:53.204Z,4.50
2018-12-01T16:03:27.440Z,6.83
2018-12-01T16:06:01.719Z,6.43
2018-12-01T16:08:35.917Z,13.20
2018-12-01T16:11:10.082Z,23.90
2018-12-01T16:13:44.300Z,8.93
2018-12-01T16:16:18.599Z,7.90
2018-12-01T16:18:52.856Z,9.17
2018-12-01T16:21:27.141Z,8.23
2018-12-01T16:24:01.669Z,4.73
2018-12-01T16:26:36.024Z,3.60
2018-12-01T16:29:10.348Z,3.97
2018-12-01T16:31:44.899Z,7.70
2018-12-01T16:34:21.317Z,5.30
2018-12-01T16:36:55.780Z,3.97
2018-12-01T16:39:30.571Z,3.97
2018-12-01T16:42:06.878Z,7.30
2018-12-01T16:44:41.462Z,9.60
2018-12-01T16:47:15.717Z,7.13
2018-12-01T16:49:50.284Z,5.80
2018-12-01T16:52:24.676Z,7.20
2018-12-01T16:54:59.140Z,6.87
2018-12-01T16:57:33.741Z,7.33
2018-12-01T17:00:24.880Z,8.77
2018-12-01T17:03:00.134Z,7.60
2018-12-01T17:05:36.070Z,4.63
2018-12-01T17:08:10.601Z,8.13
2018-12-01T17:10:57.159Z,5.53
2018-12-01T17:13:46.793Z,5.57
2018-12-01T17:16:21.770Z,4.80
2018-12-01T17:18:56.238Z,5.93
2018-12-01T17:21:34.711Z,4.23
2018-12-01T17:24:09.489Z,6.00
2018-12-01T17:26:43.732Z,6.73
2018-12-01T17:29:18.221Z,5.53
2018-12-01T17:31:53.316Z,6.37
2018-12-01T17:34:27.861Z,9.27
2018-12-01T17:37:03.584Z,8.43
2018-12-01T17:39:38.296Z,8.37
2018-12-01T17:42:12.684Z,5.93
2018-12-01T17:44:46.976Z,6.87
2018-12-01T17:47:21.495Z,6.40
2018-12-01T17:49:55.825Z,8.97
2018-12-01T17:52:30.108Z,5.17
2018-12-01T17:55:06.165Z,5.70
2018-12-01T17:57:40.416Z,7.60
2018-12-01T18:00:17.024Z,3.57
2018-12-01T18:02:52.737Z,7.57
2018-12-01T18:05:32.036Z,7.73
2018-12-01T18:08:09.000Z,8.67
2018-12-01T18:10:43.688Z,6.90
2018-12-01T18:13:17.883Z,6.33
2018-12-01T18:15:52.180Z,9.67
2018-12-01T18:18:26.519Z,10.10
2018-12-01T18:21:00.736Z,6.90
2018-12-01T18:23:35.014Z,7.43
2018-12-01T18:26:09.495Z,14.33
2018-12-01T18:28:49.231Z,5.30
2018-12-01T18:31:25.844Z,5.60
2018-12-01T18:34:02.637Z,7.07
2018-12-01T18:36:36.900Z,7.37
2018-12-01T18:39:14.808Z,3.53
2018-12-01T18:41:49.068Z,6.27
2018-12-01T18:44:23.511Z,4.17
2018-12-01T18:47:05.914Z,5.70
2018-12-01T18:49:40.373Z,6.03
2018-12-01T18:52:16.756Z,4.90
2018-12-01T18:54:52.630Z,6.70
2018-12-01T18:57:27.315Z,5.17
2018-12-01T19:00:01.824Z,4.07
2018-12-01T19:02:36.245Z,11.37
2018-12-01T19:05:10.520Z,6.70
2018-12-01T19:07:44.894Z,5.67
2018-12-01T19:10:19.669Z,7.73
2018-12-01T19:12:53.944Z,3.90
2018-12-01T19:15:28.312Z,5.27
2018-12-01T19:18:02.687Z,6.80
2018-12-01T19:20:37.692Z,7.23
2018-12-01T19:23:13.612Z,5.37
2018-12-01T19:25:49.083Z,6.80
2018-12-01T19:28:23.284Z,5.50
2018-12-01T19:30:57.476Z,4.17
2018-12-01T19:33:31.789Z,6.43
2018-12-01T19:36:06.073Z,6.10
2018-12-01T19:38:40.411Z,4.10
2018-12-01T19:41:14.703Z,5.60
2018-12-01T19:43:48.899Z,3.43
2018-12-01T19:46:23.135Z,4.17
2018-12-01T19:48:57.321Z,4.90
2018-12-01T19:51:31.554Z,5.77
2018-12-01T19:54:06.337Z,5.63
2018-12-01T19:56:40.519Z,3.47
2018-12-01T19:59:14.845Z,7.37
2018-12-01T20:01:49.119Z,10.23
2018-12-01T20:04:23.380Z,4.33
2018-12-01T20:06:57.600Z,7.43
2018-12-01T20:09:31.942Z,6.60
2018-12-01T20:12:07.717Z,5.27
2018-12-01T20:14:41.911Z,4.70
2018-12-01T20:17:16.270Z,4.00
2018-12-01T20:19:50.683Z,5.00
2018-12-01T20:22:25.089Z,5.67
2018-12-01T20:24:59.329Z,6.07
2018-12-01T20:27:33.688Z,7.30
2018-12-01T20:30:14.688Z,5.97
2018-12-01T20:32:48.988Z,4.70
2018-12-01T20:35:25.993Z,5.13
2018-12-01T20:38:02.963Z,5.83
2018-12-01T20:40:37.275Z,5.73
2018-12-01T20:43:11.616Z,5.77
2018-12-01T20:45:45.797Z,4.90
2018-12-01T20:48:20.213Z,6.47
2018-12-01T20:50:54.512Z,5.50
2018-12-01T20:53:28.772Z,5.43
2018-12-01T20:56:05.072Z,3.93
2018-12-01T20:58:39.332Z,5.57
2018-12-01T21:01:13.552Z,5.40
2018-12-01T21:03:47.891Z,6.27
2018-12-01T21:06:22.344Z,6.17
2018-12-01T21:08:56.573Z,4.50
2018-12-01T21:11:30.810Z,6.77
2018-12-01T21:14:04.996Z,6.70
2018-12-01T21:16:39.290Z,7.80
2018-12-01T21:19:13.640Z,7.23
2018-12-01T21:21:47.852Z,5.47
2018-12-01T21:24:22.237Z,6.17
2018-12-01T21:26:56.625Z,6.73
2018-12-01T21:29:31.029Z,2.93
2018-12-01T21:32:06.342Z,6.50
2018-12-01T21:34:40.743Z,3.97
2018-12-01T21:37:14.956Z,5.77
2018-12-01T21:39:49.300Z,6.00
2018-12-01T21:42:23.570Z,4.23
2018-12-01T21:44:57.971Z,4.90
2018-12-01T21:47:32.256Z,5.10
2018-12-01T21:50:09.156Z,7.23
2018-12-01T21:52:44.845Z,5.77
2018-12-01T21:55:19.459Z,7.93
2018-12-01T21:57:54.553Z,5.00
2018-12-01T22:00:30.926Z,5.60
2018-12-01T22:03:08.958Z,5.33
2018-12-01T22:05:52.284Z,6.63
2018-12-01T22:08:26.720Z,6.70
2018-12-01T22:11:01.017Z,3.70
2018-12-01T22:13:35.280Z,8.03
2018-12-01T22:16:09.930Z,4.80
2018-12-01T22:18:44.548Z,6.50
2018-12-01T22:21:18.770Z,6.33
2018-12-01T22:23:53.173Z,8.10
2018-12-01T22:26:27.487Z,4.60
2018-12-01T22:29:01.832Z,3.70
2018-12-01T22:31:36.181Z,4.20
2018-12-01T22:34:10.327Z,4.57
2018-12-01T22:36:44.753Z,5.43
2018-12-01T22:39:18.901Z,3.87
2018-12-01T22:41:53.132Z,3.53
2018-12-01T22:44:27.385Z,3.27
2018-12-01T22:47:01.809Z,3.37
2018-12-01T22:49:36.243Z,4.53
2018-12-01T22:52:10.541Z,2.20
2018-12-01T22:54:44.914Z,4.37
2018-12-01T22:57:19.169Z,2.50
2018-12-01T22:59:53.471Z,3.27
2018-12-01T23:02:27.838Z,2.67
2018-12-01T23:05:02.102Z,2.20
2018-12-01T23:07:36.408Z,5.57
2018-12-01T23:10:14.938Z,2.77
2018-12-01T23:12:49.291Z,5.00
2018-12-01T23:15:23.637Z,3.57
2018-12-01T23:17:58.142Z,2.47
2018-12-01T23:20:32.995Z,5.43
2018-12-01T23:23:07.606Z,2.50
2018-12-01T23:25:41.939Z,2.30
2018-12-01T23:28:16.111Z,1.90
2018-12-01T23:30:53.897Z,2.70
2018-12-01T23:33:28.844Z,5.20
2018-12-01T23:36:02.969Z,2.20
2018-12-01T23:38:37.479Z,2.87
2018-12-01T23:41:11.830Z,3.40
2018-12-01T23:43:46.152Z,2.27
2018-12-01T23:46:20.512Z,3.53
2018-12-01T23:48:54.836Z,1.60
2018-12-01T23:51:31.070Z,2.13
2018-12-01T23:54:05.653Z,1.30
2018-12-01T23:56:40.021Z,2.40
2018-12-01T23:59:14.257Z,2.97
